Airfield :
LOGIN :

Register | Disclaimer

   EN    FR    IT 

 










Legend :    VFR   Marginal VFR   IFR   Intensive IFR   Very Intensive IFR
Visi :
Ceiling :
>= 8 km
>= 3000ft
5 to 8 km
1000 to 3000 ft
1500m to 5 km
500 to 1000 ft
800 to 1500m
200 to 500 ft
< 800m
< 200 ft
Symbols :   Thunderstorms  Fog  Heavy snow  Heavy precipitations  Wind > 20 kt
SIGMETs :     Misc.  Thunderstorms  Icing  Turbulence  Mountain Waves  Volcanic Ashes






- Airport Elevation : 464 ft
- IATA code : EVX


LFOE - Evreux

CURRENT METAR :
  • 180400Z AUTO 09008KT 9000 FEW040/// BKN072/// BKN180/// ///TCU 18/18 Q1010 TEMPO VRB15G25KT 2000 TSRAGS SCT008 BKN050CB

EXPIRED METARs :
  • 180330Z AUTO 09005KT 8000 ///TCU 18/18 Q1010 TEMPO VRB15G25KT 2000 TSRAGS SCT008 BKN050CB
  • 180300Z AUTO 09007KT 9000 FEW005 SCT066 BKN120 18/18 Q1011 TEMPO VRB15G25KT 2000 TSRAGS SCT008 BKN050CB
  • 180230Z AUTO 10007KT 070V130 8000 -RA FEW043/// BKN072/// BKN088/// ///CB 19/18 Q1011 TEMPO VRB15G25KT 2000 TSRAGS
  • 180200Z AUTO 10005KT 9999 -RA FEW025/// SCT068/// OVC082/// ///CB 19/18 Q1011 TEMPO VRB15G25KT 2000 TSRAGS FEW005 OVC100
  • 180130Z AUTO 07006KT 8000 OVC004/// ///CB 19/19 Q1011 TEMPO VRB15G25KT 2000 TSRAGS FEW005 OVC100

TAF TAF LFOE
Valid from the 18 at 03:00 until the 19 at 03:00 UTC


180200Z 1803/1903 VRB02KT 4000 BR FEW008 OVC100
TEMPO 1803/1805 VRB15G25KT 2000 TSRAGS SCT008 BKN050CB
BECMG 1805/1807 9999 NSW BKN015
BECMG 1810/1811 19015G25KT
PROB30
TEMPO 1811/1816 4000 -SHRA BKN015CB
BECMG 1822/1824 28005KT OVC008



MET'MAP, your aeronautical weather chart ! - Copyright ORBIFLY December 2007 - Disclaimer

ORBIFLY MET'MAP TEAM :

Programming & Development : Alexandra Zaïnal
Concept & original design : Baudouin d'Aumeries
Assistance for programming : Marc-Olivier Méhu
Technical & hardware support : Manuel Goepfert

Contact : metmap@orbifly.com




SOURCES & CREDITS :

   NOAA